首页
METAR-TAF:

METAR-TAF

机场 :

Seyresse

達克斯, 法国

纬度: 43-41N, 经度: 001-04W, 海拔: 32米

当前天气观测

该预报发布于44分钟前的15:30 UTC
风速9节,风向西,在西南西北之间变化
温度 18°C
湿度 73%
气压 1012 hPa
能见度10公里或以上

METAR: LFBY 051530Z AUTO 27009KT 230V310 9999 // ////// 18/13 Q1012

时间: 18:14 (16:14 UTC)

预报

该预报发布于8小时和14分钟前的08:00 UTC
预报有效从05日的 09点(UTC)到 05日的 18点(UTC)
风速10节,风向西
能見度: 3000
多云层高于600英尺
多云层高于2000英尺
雨, 毛毛雨
成为
从 05日的 10点(UTC)到 05日的 12点(UTC)
能见度10公里或以上
散云层高于1500英尺
多云层高于2000英尺
短暂存在
从 05日的 10点(UTC)到 05日的 15点(UTC)
风速10节,风向西,有时为20节阵风
几率 30% :
短暂存在
从 05日的 12点(UTC)到 05日的 15点(UTC)
能見度: 4000
多云层高于1000英尺
小雨

TAF: LFBY 050800Z 0509/0518 28010KT 3000 RADZ BKN006 BKN020 BECMG 0510/0512 9999 SCT015 BKN020 TEMPO 0510/0515 28010G20KT PROB30 TEMPO 0512/0515 4000 -RA BKN010

超过4000个机场的气象观测和天气预报(METAR&TAF报告)。

可查询的气象台以黄色和红色小点在地图上表示。

将鼠标移到小点上方,可查看气象台名称。

然后点击查看天气观测和预报。

如需切换地图:点击带黑十字的绿色按钮放大地图;点击带横线的绿色按钮缩小地图;或者点击绿色箭头查看邻近地区的地图。


METAR-TAF: